• Join FlightAware (Why Join?)
  • Login
  • US Flag 
01:24AM EDT


 

Airport Tracker/Info


-or-


 

Live Flight TrackerFlight Track Log ✈ AWE1940 ✈ 17-Jun-2013 ✈ KIAH - KCLT

Flight Track Log - Related Links

Times and Time Zones

All times are in EDT time to prevent confusion due to time zone crossing. See the AWE1940 flight status page for this flight to view local times or setup timezone preferences in your user account.

Time Position Orientation Groundspeed Altitude Reporting Facility
EDT Latitude Longitude Course Direction KTS MPH feet Rate Location/Type
07:45PM 29.9639 -95.3433 95° East 152 175 800  Level Houston Center
07:46PM 29.9250 -95.2878 129° Southeast 225 259 2,800 1,680 Climbing Houston Center
07:47PM 29.9036 -95.2581 130° Southeast 213 245 3,800 1,860 Climbing Houston Center
07:47PM 29.8914 -95.2194 110° East 284 327 4,700 2,400 Climbing Houston Center
07:48PM 29.9300 -94.9461 101° East  Level FlightAware Approximate
07:48PM 29.8872 -95.1686 95° East 279 321 6,300  Level Houston Center
07:48PM 29.8728 -95.1303 113° Southeast 290 334 7,600 2,760 Climbing Houston Center
07:49PM 29.9125 -94.8166 95° East  Level FlightAware Approximate
07:49PM 29.8578 -95.0808 109° East 290 334 9,200  Level Houston Center
07:49PM 29.8492 -95.0367 103° East 295 339 10,300 1,560 Climbing Houston Center
07:50PM 29.9016 -94.6861 95° East  Level FlightAware Approximate
07:50PM 29.8517 -94.9831 87° East 313 360 10,900  Level Houston Center
07:51PM 29.8542 -94.8575 89° East 358 412 12,300 1,620 Climbing Houston Center
07:52PM 29.8567 -94.7406 89° East 388 447 14,300 2,220 Climbing Houston Center
07:53PM 29.8589 -94.5831 89° East 407 468 16,900 1,980 Climbing Houston Center
07:54PM 29.8611 -94.4475 89° East 421 484 18,500 1,560 Climbing Houston Center
07:55PM 29.8631 -94.3072 89° East 436 502 20,100 1,620 Climbing Houston Center
07:56PM 29.8581 -94.1569 92° East 446 513 21,900 1,500 Climbing Houston Center
07:57PM 29.8561 -94.0103 91° East 457 526 23,200 1,200 Climbing Houston Center
07:58PM 29.8731 -93.8636 82° East 467 537 24,400 1,200 Climbing Houston Center
07:59PM 29.8897 -93.7142 83° East 473 544 25,800 1,200 Climbing Houston Center
08:00PM 29.9058 -93.5622 83° East 480 552 26,900 1,260 Climbing Houston Center
08:01PM 29.9231 -93.3778 84° East 489 563 28,400 1,440 Climbing Houston Center
08:02PM 29.9378 -93.2261 84° East 484 557 29,900 1,200 Climbing Houston Center
08:03PM 29.9533 -93.0775 83° East 475 547 31,000 1,020 Climbing Houston Center
08:04PM 29.9697 -92.9272 83° East 475 547 32,000 960 Climbing Houston Center
08:05PM 29.9817 -92.7783 85° East 471 542 33,000 480 Climbing Houston Center
08:06PM 29.9942 -92.6019 85° East 463 533 33,000  Level Houston Center
08:07PM 30.0097 -92.4567 83° East 459 528 33,000  Level Houston Center
08:08PM 30.0392 -92.3131 77° East 462 532 33,000  Level Houston Center
08:09PM 30.0661 -92.1694 78° East 460 529 33,000  Level Houston Center
08:10PM 30.0933 -92.0258 78° East 459 528 33,000  Level Houston Center
08:11PM 30.1200 -91.8839 78° East 455 524 33,000  Level Houston Center
08:12PM 30.1522 -91.7131 78° East 456 525 33,000  Level Houston Center
08:13PM 30.1781 -91.5656 79° East 453 521 33,000  Level Houston Center
08:14PM 30.2042 -91.4242 78° East 452 520 33,000  Level Houston Center
08:15PM 30.2322 -91.2822 77° East 453 521 33,000  Level Houston Center
08:17PM 30.2556 -91.1419 79° East 448 516 33,000  Level Houston Center
08:18PM 30.2814 -91.0014 78° East 448 516 33,000  Level Houston Center
08:19PM 30.3067 -90.8603 78° East 449 517 33,000  Level Houston Center
08:20PM 30.3319 -90.7181 78° East 452 520 33,000  Level Houston Center
08:21PM 30.3636 -90.5472 78° East 452 520 33,000  Level Houston Center
08:22PM 30.3875 -90.4050 79° East 450 518 33,000  Level Houston Center
08:23PM 30.4119 -90.2619 79° East 453 521 33,000  Level Houston Center
08:24PM 30.4381 -90.1194 78° East 452 520 33,000  Level Houston Center
08:25PM 30.4625 -89.9744 79° East 453 521 33,000  Level Houston Center
08:26PM 30.4889 -89.8261 78° East 460 529 33,000  Level Houston Center
08:27PM 30.5144 -89.6756 79° East 466 536 33,000  Level Houston Center
08:28PM 30.5375 -89.5278 80° East 464 534 33,000  Level Houston Center
08:29PM 30.5611 -89.3814 79° East 461 531 33,000  Level Houston Center
08:30PM 30.5894 -89.2050 79° East 462 532 33,000  Level Houston Center
08:31PM 30.6189 -89.0622 76° East 457 526 33,000  Level Houston Center
08:32PM 30.7067 -88.9586 45° Northeast 450 518 33,000  Level Houston Center
08:33PM 30.7997 -88.8611 42° Northeast 454 522 33,000  Level Houston Center
08:34PM 30.8931 -88.7628 42° Northeast 452 520 33,000  Level Houston Center
08:35PM 30.9869 -88.6625 42° Northeast 454 522 33,000  Level Houston Center
08:36PM 31.1000 -88.5436 42° Northeast 457 526 33,000  Level Houston Center
08:37PM 31.1947 -88.4447 42° Northeast 458 527 33,000  Level Houston Center
08:38PM 31.2928 -88.3414 42° Northeast 456 525 33,000  Level Houston Center
08:39PM 31.3858 -88.2400 43° Northeast 452 520 33,000  Level Houston Center
08:40PM 31.4792 -88.1389 43° Northeast 453 521 33,000  Level Houston Center
08:41PM 31.5725 -88.0400 42° Northeast 453 521 33,000  Level Houston Center
08:42PM 31.6728 -87.9356 42° Northeast 452 520 33,000  Level Atlanta Center
08:43PM 31.7656 -87.8347 43° Northeast 452 520 33,000  Level Atlanta Center
08:44PM 31.8583 -87.7333 43° Northeast 452 520 33,000  Level Atlanta Center
08:45PM 31.9339 -87.6533 42° Northeast 452 520 33,000  Level Atlanta Center
08:46PM 32.0331 -87.5372 45° Northeast 452 520 33,000  Level Atlanta Center
08:47PM 32.1278 -87.4331 43° Northeast 457 526 33,000  Level Atlanta Center
08:48PM 32.2206 -87.3286 44° Northeast 457 526 33,000  Level Atlanta Center
08:49PM 32.3169 -87.2264 42° Northeast 457 526 33,000  Level Atlanta Center
08:50PM 32.4094 -87.1217 44° Northeast 457 526 33,000  Level Atlanta Center
08:51PM 32.5039 -87.0189 41° Northeast 457 526 33,000  Level Atlanta Center
08:52PM 32.5202 -87.0061 41° Northeast  Level FlightAware Approximate
08:52PM 32.5961 -86.9161 43° Northeast 457 526 33,000  Level Atlanta Center
08:53PM 32.6925 -86.8081 43° Northeast 457 526 33,000  Level Atlanta Center
08:54PM 32.7844 -86.7047 43° Northeast 458 527 33,000  Level Atlanta Center
08:55PM 32.8764 -86.6036 43° Northeast 458 527 33,000  Level Atlanta Center
08:56PM 32.9725 -86.4878 45° Northeast 463 533 33,000  Level Atlanta Center
08:57PM 33.0706 -86.3839 42° Northeast 463 533 33,000  Level Atlanta Center
08:58PM 33.1767 -86.2972 34° Northeast 458 527 33,000  Level Atlanta Center
08:59PM 33.2828 -86.2031 37° Northeast 458 527 33,000  Level Atlanta Center
09:00PM 33.3950 -86.1089 35° Northeast 458 527 33,000  Level Atlanta Center
09:01PM 33.4986 -86.0217 35° Northeast 458 527 33,000  Level Atlanta Center
09:02PM 33.6022 -85.9294 37° Northeast 458 527 33,000  Level Atlanta Center
09:03PM 33.7058 -85.8417 35° Northeast 458 527 33,000  Level Atlanta Center
09:04PM 33.8031 -85.7664 33° Northeast 458 527 33,000  Level Atlanta Center
09:05PM 33.9086 -85.6783 35° Northeast 458 527 33,000  Level Atlanta Center
09:06PM 33.9994 -85.5997 36° Northeast 458 527 33,000  Level Atlanta Center
09:07PM 34.1239 -85.4892 36° Northeast 460 529 33,000  Level Atlanta Center
09:08PM 34.2292 -85.3981 36° Northeast 455 524 33,000  Level Atlanta Center
09:09PM 34.3344 -85.3067 36° Northeast 460 529 33,000  Level Atlanta Center
09:10PM 34.4358 -85.2100 38° Northeast 454 522 33,000  Level Atlanta Center
09:11PM 34.5472 -85.1206 33° Northeast 471 542 33,000  Level Atlanta Center
09:12PM 34.6522 -85.0261 36° Northeast 471 542 33,000  Level Atlanta Center
09:13PM 34.7531 -84.9361 36° Northeast 466 536 33,000  Level Atlanta Center
09:14PM 34.8581 -84.8411 37° Northeast 461 531 33,000  Level Atlanta Center
09:15PM 34.9653 -84.7458 36° Northeast 461 531 33,000  Level Atlanta Center
09:16PM 35.0678 -84.6528 37° Northeast 461 531 33,000  Level Atlanta Center
09:17PM 35.1747 -84.5597 35° Northeast 461 531 33,000  Level Atlanta Center
09:18PM 35.2711 -84.4558 41° Northeast 456 525 33,000  Level Atlanta Center
09:19PM 35.3550 -84.3317 50° Northeast 456 525 33,000  Level Atlanta Center
09:20PM 35.4364 -84.2019 52° Northeast 466 536 33,000 -60 Level Atlanta Center
09:21PM 35.5158 -84.0744 53° Northeast 471 542 32,900 -600 Descending Atlanta Center
09:22PM 35.5994 -83.9494 51° Northeast 471 542 31,800 -1,320 Descending Atlanta Center
09:23PM 35.6825 -83.8239 51° Northeast 471 542 30,300 -1,380 Descending Atlanta Center
09:24PM 35.7636 -83.6958 52° Northeast 471 542 29,100 -900 Descending Atlanta Center
09:25PM 35.8467 -83.5675 51° Northeast 471 542 28,600 -1,080 Descending Atlanta Center
09:26PM 35.8983 -83.4208 66° East 455 524 27,000 -1,620 Descending Atlanta Center
09:27PM 35.8953 -83.2594 91° East 449 517 25,400 -1,320 Descending Atlanta Center
09:28PM 35.8858 -83.1186 95° East 449 517 24,400 -720 Descending Atlanta Center
09:29PM 35.8847 -82.9675 90° East 444 511 24,000 -420 Descending Atlanta Center
09:31PM 35.8792 -82.7837 92° East  Level FlightAware Approximate
09:31PM 35.8461 -82.6528 92° East 439 505 23,200  Level Atlanta Center
09:32PM 35.8153 -82.5203 106° East 445 512 21,600 -1,680 Descending Atlanta Center
09:33PM 35.7819 -82.3672 105° East 437 503 19,900 -1,800 Descending Atlanta Center
09:34PM 35.7506 -82.2194 105° East 437 503 18,100 -1,560 Descending Atlanta Center
09:35PM 35.7239 -82.0972 105° East 425 489 16,800 -1,500 Descending Atlanta Center
09:36PM 35.6922 -81.9600 106° East 412 474 15,100 -1,740 Descending Atlanta Center
09:37PM 35.6631 -81.8303 105° East 406 467 13,400 -1,860 Descending Atlanta Center
09:38PM 35.6492 -81.7669 105° East 392 451 12,500 -1,920 Descending Atlanta Center
09:38PM 35.6267 -81.6728 106° East 382 440 11,300 -960 Descending Atlanta Center
09:39PM 35.6061 -81.5892 107° East 365 420 11,000 -480 Descending Atlanta Center
09:40PM 35.5544 -81.5064 127° Southeast 316 364 10,500 -1,140 Descending Atlanta Center
09:41PM 35.5272 -81.3975 107° East 300 345 8,800 -1,500 Descending Atlanta Center
09:42PM 35.5083 -81.3014 104° East 292 336 7,600 -900 Descending Atlanta Center
09:43PM 35.5125 -81.2094 87° East 263 303 7,000 -780 Descending Atlanta Center
09:44PM 35.5064 -81.1278 95° East 266 306 6,100 -1,020 Descending Atlanta Center
09:45PM 35.5025 -81.0464 93° East 249 287 5,000 -600 Descending Atlanta Center
09:46PM 35.4717 -80.9914 125° Southeast 197 227 5,000 -540 Level Atlanta Center
09:47PM 35.4214 -80.9728 163° South 184 212 4,000 -780 Descending Atlanta Center
09:48PM 35.3689 -80.9672 175° South 182 209 3,500 -780 Descending Atlanta Center
09:49PM 35.3189 -80.9639 177° South 174 200 2,500 -840 Descending Atlanta Center
09:50PM 35.2769 -80.9606 176° South 137 158 1,800 -720 Descending Atlanta Center